Time;durP1;ratioP1;P1;durP2;ratioP2;P2;SDS_P1;SDS_P2;PMS_P1;PMS_P2;Temp;Humidity;BMP_temperature;BMP_pressure;BME280_temperature;BME280_humidity;BME280_pressure;Samples;Min_cycle;Max_cycle;Signal;HPM_P1;HPM_P2
2021/07/08 00:00:53;;;;;;;4.87;3.98;;;;;;;18.95;100.00;101445.53;1672725;84;21022;-89
2021/07/08 00:03:20;;;;;;;5.05;3.83;;;;;;;18.92;100.00;101445.31;1662542;83;21035;-89
2021/07/08 00:05:47;;;;;;;5.15;3.70;;;;;;;18.90;100.00;101448.59;1680109;83;21120;-86
2021/07/08 00:08:16;;;;;;;3.95;3.55;;;;;;;18.87;100.00;101447.05;1676805;83;21529;-89
2021/07/08 00:10:48;;;;;;;7.65;3.80;;;;;;;18.86;100.00;101449.38;1663763;83;21113;-90
2021/07/08 00:13:17;;;;;;;7.08;3.65;;;;;;;18.86;100.00;101448.53;1682164;83;21046;-90
2021/07/08 00:15:44;;;;;;;4.12;3.47;;;;;;;18.86;100.00;101442.78;1673606;83;21235;-88
2021/07/08 00:18:13;;;;;;;6.28;3.67;;;;;;;18.87;100.00;101446.23;1705032;83;20970;-89
2021/07/08 00:20:45;;;;;;;4.40;3.62;;;;;;;18.87;100.00;101447.05;1667999;83;21116;-89
2021/07/08 00:23:15;;;;;;;6.33;3.90;;;;;;;18.85;100.00;101446.39;1657089;83;21678;-90
2021/07/08 00:25:43;;;;;;;5.22;3.40;;;;;;;18.86;100.00;101448.53;1679249;83;21082;-88
2021/07/08 00:28:12;;;;;;;4.58;3.70;;;;;;;18.86;100.00;101448.53;1667092;83;21539;-88
2021/07/08 00:30:42;;;;;;;4.92;3.17;;;;;;;18.83;100.00;101453.62;1677960;83;21457;-90
2021/07/08 00:33:09;;;;;;;6.45;3.40;;;;;;;18.81;100.00;101454.75;1672711;83;21093;-90
2021/07/08 00:35:39;;;;;;;4.90;3.42;;;;;;;18.77;100.00;101451.58;1670822;83;21732;-89
2021/07/08 00:38:06;;;;;;;5.30;3.12;;;;;;;18.74;100.00;101454.51;1660050;84;21610;-87
2021/07/08 00:40:34;;;;;;;6.53;3.22;;;;;;;18.71;100.00;101460.92;1701948;83;21628;-88
2021/07/08 00:43:03;;;;;;;5.58;3.15;;;;;;;18.67;100.00;101457.41;1701831;83;21017;-89
2021/07/08 00:45:30;;;;;;;5.97;3.30;;;;;;;18.62;100.00;101464.94;1671613;83;21795;-89
2021/07/08 00:47:59;;;;;;;7.90;3.35;;;;;;;18.58;100.00;101459.95;1700855;83;21212;-90
2021/07/08 00:50:34;;;;;;;8.10;3.42;;;;;;;18.53;100.00;101462.20;1685817;83;21069;-89
2021/07/08 00:53:03;;;;;;;4.12;3.72;;;;;;;18.49;100.00;101464.78;1676881;83;21009;-90
2021/07/08 00:55:31;;;;;;;6.72;3.12;;;;;;;18.44;100.00;101468.36;1702047;83;21098;-87
2021/07/08 00:57:58;;;;;;;5.45;3.15;;;;;;;18.38;100.00;101465.81;1698374;83;21299;-88
2021/07/08 01:00:34;;;;;;;10.45;3.72;;;;;;;18.35;100.00;101470.05;1675329;83;21073;-88
2021/07/08 01:03:07;;;;;;;21.12;4.65;;;;;;;18.35;100.00;101470.55;1673606;83;20975;-88
2021/07/08 01:05:35;;;;;;;5.65;3.27;;;;;;;18.38;100.00;101472.91;1679172;83;21108;-88
2021/07/08 01:08:05;;;;;;;5.05;2.83;;;;;;;18.37;100.00;101472.55;1674290;84;21065;-89
2021/07/08 01:10:33;;;;;;;10.18;4.35;;;;;;;18.37;100.00;101478.65;1646005;85;22354;-87
2021/07/08 01:13:03;;;;;;;6.20;3.27;;;;;;;18.36;100.00;101484.08;1682265;84;21098;-88
2021/07/08 01:15:31;;;;;;;6.00;3.30;;;;;;;18.39;100.00;101489.03;1647202;84;21671;-89
2021/07/08 01:17:59;;;;;;;9.05;3.25;;;;;;;18.41;100.00;101487.09;1682327;84;21018;-86
2021/07/08 01:20:31;;;;;;;4.35;3.20;;;;;;;18.46;100.00;101495.42;1650664;84;21738;-89
2021/07/08 01:22:59;;;;;;;9.23;3.45;;;;;;;18.47;100.00;101493.09;1647870;85;21161;-88
2021/07/08 01:25:34;;;;;;;5.12;3.42;;;;;;;18.43;100.00;101496.52;1647817;85;21057;-89
2021/07/08 01:28:05;;;;;;;5.25;3.00;;;;;;;18.42;100.00;101496.67;1653308;85;21038;-88
2021/07/08 01:30:32;;;;;;;4.75;3.15;;;;;;;18.40;100.00;101506.05;1653603;84;21082;-89
2021/07/08 01:33:00;;;;;;;4.33;3.15;;;;;;;18.36;100.00;101500.70;1649873;83;21164;-90
2021/07/08 01:35:28;;;;;;;4.83;3.22;;;;;;;18.28;100.00;101500.13;1648932;83;21778;-89
2021/07/08 01:37:55;;;;;;;4.65;3.45;;;;;;;18.24;100.00;101504.52;1664862;83;21638;-90
2021/07/08 01:40:24;;;;;;;6.75;3.35;;;;;;;18.19;100.00;101506.73;1681863;83;20978;-90
2021/07/08 01:42:52;;;;;;;7.12;3.85;;;;;;;18.16;100.00;101510.99;1660745;83;21044;-89
2021/07/08 01:45:19;;;;;;;5.28;2.98;;;;;;;18.13;100.00;101506.84;1657555;83;21622;-89
2021/07/08 01:48:17;;;;;;;7.47;2.95;;;;;;;18.11;100.00;101509.60;1669491;83;21227;-88
2021/07/08 01:50:45;;;;;;;4.47;3.45;;;;;;;18.09;100.00;101504.98;1637145;85;21731;-89
2021/07/08 01:53:16;;;;;;;4.80;3.25;;;;;;;18.06;100.00;101511.03;1625785;86;21118;-90
2021/07/08 01:55:57;;;;;;;5.53;3.27;;;;;;;18.01;100.00;101514.56;1618021;87;21051;-90
2021/07/08 01:58:28;;;;;;;3.80;3.30;;;;;;;17.97;100.00;101512.23;1574682;87;21524;-90
2021/07/08 02:00:55;;;;;;;4.85;3.35;;;;;;;17.95;100.00;101510.65;1607300;87;21182;-89
2021/07/08 02:03:22;;;;;;;5.53;3.20;;;;;;;17.91;100.00;101511.92;1606928;87;21047;-89
2021/07/08 02:05:49;;;;;;;6.37;3.40;;;;;;;17.90;100.00;101509.78;1599749;88;21956;-89
2021/07/08 02:08:17;;;;;;;4.80;3.50;;;;;;;17.91;100.00;101515.88;1606871;87;21101;-88
2021/07/08 02:10:45;;;;;;;4.35;3.30;;;;;;;17.90;100.00;101520.80;1661004;83;21116;-90
2021/07/08 02:13:12;;;;;;;5.40;3.20;;;;;;;17.89;100.00;101528.34;1626433;86;21653;-89
2021/07/08 02:15:45;;;;;;;3.75;3.30;;;;;;;17.85;100.00;101528.30;1683308;83;21646;-87
2021/07/08 02:18:14;;;;;;;3.25;2.90;;;;;;;17.79;100.00;101525.23;1612612;85;21080;-87
2021/07/08 02:20:42;;;;;;;5.80;3.02;;;;;;;17.76;100.00;101524.69;1640050;86;21102;-89
2021/07/08 02:23:09;;;;;;;3.30;3.00;;;;;;;17.74;100.00;101526.66;1615425;86;21708;-89
2021/07/08 02:25:36;;;;;;;3.70;3.02;;;;;;;17.72;100.00;101531.23;1609446;87;21161;-89
2021/07/08 02:28:03;;;;;;;4.03;3.50;;;;;;;17.68;100.00;101534.63;1630719;86;21033;-90
2021/07/08 02:30:30;;;;;;;6.70;3.15;;;;;;;17.65;100.00;101539.69;1609795;87;21097;-89
2021/07/08 02:32:58;;;;;;;5.62;3.15;;;;;;;17.64;100.00;101543.77;1608030;86;21573;-89
2021/07/08 02:35:28;;;;;;;3.08;2.87;;;;;;;17.63;100.00;101545.58;1637416;86;21564;-88
2021/07/08 02:37:57;;;;;;;4.95;3.12;;;;;;;17.64;100.00;101543.77;1628360;86;21130;-88
2021/07/08 02:40:31;;;;;;;4.47;3.60;;;;;;;17.68;100.00;101552.21;1630186;86;21077;-88
2021/07/08 02:43:00;;;;;;;4.42;3.50;;;;;;;17.70;100.00;101548.96;1631213;86;20994;-88
2021/07/08 02:45:34;;;;;;;4.87;3.25;;;;;;;17.71;100.00;101551.45;1631199;86;21051;-87
2021/07/08 02:48:06;;;;;;;10.08;3.75;;;;;;;17.75;100.00;101555.95;1700220;83;21112;-87
2021/07/08 02:50:35;;;;;;;6.62;3.12;;;;;;;17.79;100.00;101554.72;1636701;85;21558;-88
2021/07/08 02:53:04;;;;;;;6.62;2.95;;;;;;;17.86;100.00;101553.17;1623884;86;21166;-89
2021/07/08 02:55:31;;;;;;;7.50;3.33;;;;;;;17.93;100.00;101550.33;1646086;84;21104;-88
2021/07/08 02:58:02;;;;;;;7.80;3.00;;;;;;;18.02;100.00;101553.12;1629253;86;21589;-87
2021/07/08 03:00:31;;;;;;;5.25;2.83;;;;;;;18.07;100.00;101551.72;1648587;85;21644;-89
2021/07/08 03:02:59;;;;;;;5.08;3.50;;;;;;;18.14;100.00;101553.31;1684575;83;21899;-89
2021/07/08 03:05:27;;;;;;;3.10;2.80;;;;;;;18.21;100.00;101548.28;1695315;83;21042;-89
2021/07/08 03:07:55;;;;;;;5.92;3.40;;;;;;;18.26;100.00;101551.34;1689284;83;21088;-87
2021/07/08 03:10:25;;;;;;;5.90;3.17;;;;;;;18.33;100.00;101551.58;1675149;84;21148;-88
2021/07/08 03:12:54;;;;;;;8.20;3.33;;;;;;;18.36;100.00;101549.98;1664936;83;21112;-88
2021/07/08 03:15:23;;;;;;;8.30;4.35;;;;;;;18.41;100.00;101551.69;1702455;83;21379;-90
2021/07/08 03:17:54;;;;;;;3.97;3.50;;;;;;;18.47;100.00;101555.56;1690175;83;21577;-88
2021/07/08 03:20:24;;;;;;;5.97;3.20;;;;;;;18.52;100.00;101551.99;1675965;83;21137;-88
2021/07/08 03:22:53;;;;;;;4.17;3.10;;;;;;;18.57;100.00;101553.73;1660234;83;21633;-87
2021/07/08 03:25:21;;;;;;;6.50;3.05;;;;;;;18.61;100.00;101555.09;1682034;84;21051;-87
2021/07/08 03:27:48;;;;;;;7.10;3.37;;;;;;;18.66;100.00;101557.29;1662290;81;21102;-88
2021/07/08 03:30:19;;;;;;;5.47;3.52;;;;;;;18.71;100.00;101559.84;1748472;79;21051;-88
2021/07/08 03:32:49;;;;;;;4.00;3.00;;;;;;;18.78;100.00;101563.20;1764074;79;21509;-88
2021/07/08 03:35:17;;;;;;;4.85;2.72;;;;;;;18.85;100.00;101563.80;1775165;79;21018;-90
2021/07/08 03:37:44;;;;;;;7.67;2.77;;;;;;;18.94;100.00;101566.07;1734094;79;21549;-87
2021/07/08 03:40:14;;;;;;;8.28;3.70;;;;;;;19.05;100.00;101571.63;1761188;79;22973;-86
2021/07/08 03:42:43;;;;;;;3.67;3.00;;;;;;;19.13;100.00;101569.08;1745218;80;21060;-88
2021/07/08 03:45:12;;;;;;;4.20;3.10;;;;;;;19.21;100.00;101570.48;1750588;79;21077;-87
2021/07/08 03:47:42;;;;;;;6.75;2.65;;;;;;;19.30;100.00;101575.85;1775112;79;21109;-90
2021/07/08 03:50:11;;;;;;;5.65;3.00;;;;;;;19.38;100.00;101575.94;1771835;79;21077;-88
2021/07/08 03:52:41;;;;;;;4.95;3.47;;;;;;;19.47;100.00;101585.60;1743546;80;21195;-88
2021/07/08 03:55:15;;;;;;;11.30;3.12;;;;;;;19.55;100.00;101585.68;1753972;80;21038;-88
2021/07/08 03:57:52;;;;;;;3.37;2.98;;;;;;;19.66;100.00;101584.62;1750221;80;21455;-89
2021/07/08 04:00:26;;;;;;;5.08;2.77;;;;;;;19.77;100.00;101586.19;1765159;78;21088;-89
2021/07/08 04:02:55;;;;;;;6.37;2.83;;;;;;;19.86;100.00;101585.31;1770248;79;21580;-89
2021/07/08 04:05:22;;;;;;;4.83;2.90;;;;;;;19.95;100.00;101584.05;1755326;79;21834;-89
2021/07/08 04:07:49;;;;;;;3.52;2.92;;;;;;;20.03;100.00;101584.11;1756857;79;21529;-88
2021/07/08 04:10:17;;;;;;;7.35;3.17;;;;;;;20.11;100.00;101588.14;1693736;82;21123;-87
2021/07/08 04:12:44;;;;;;;4.22;2.80;;;;;;;20.15;100.00;101591.30;1692166;83;21309;-88
2021/07/08 04:15:12;;;;;;;5.30;3.10;;;;;;;20.19;100.00;101591.31;1757315;80;21069;-88
2021/07/08 04:17:39;;;;;;;7.33;3.12;;;;;;;20.23;100.00;101591.86;1757593;80;21074;-89
2021/07/08 04:20:10;;;;;;;8.30;3.05;;;;;;;20.26;100.00;101595.50;1649028;83;21624;-88
2021/07/08 04:22:37;;;;;;;8.18;3.15;;;;;;;20.27;100.00;101590.55;1766203;79;21124;-90
2021/07/08 04:25:07;;;;;;;5.95;3.70;;;;;;;20.30;100.00;101592.89;1753137;80;21036;-89
2021/07/08 04:27:35;;;;;;;8.35;3.10;;;;;;;20.35;100.00;101598.53;1708678;81;21605;-90
2021/07/08 04:30:08;;;;;;;3.52;3.10;;;;;;;20.42;100.00;101595.59;1715404;82;21787;-89
2021/07/08 04:32:36;;;;;;;5.22;3.02;;;;;;;20.51;100.00;101596.97;1703648;81;21490;-88
2021/07/08 04:35:04;;;;;;;5.97;3.72;;;;;;;20.59;100.00;101600.98;1693029;83;21058;-90
2021/07/08 04:37:38;;;;;;;4.90;3.20;;;;;;;20.68;100.00;101604.48;1708380;82;21078;-90
2021/07/08 04:40:02;;;;;;;7.70;2.83;;;;;;;20.73;100.00;101611.50;1722211;82;21603;-88
2021/07/08 04:42:29;;;;;;;4.92;3.00;;;;;;;20.75;100.00;101614.33;1695376;81;21350;-89
2021/07/08 04:44:56;;;;;;;5.17;3.10;;;;;;;20.79;100.00;101610.36;1719327;81;21018;-91
2021/07/08 04:47:24;;;;;;;5.15;3.42;;;;;;;20.83;100.00;101611.38;1765177;79;21063;-90
2021/07/08 04:49:51;;;;;;;4.28;3.22;;;;;;;20.84;100.00;101607.74;1746843;80;22269;-88
2021/07/08 04:52:18;;;;;;;4.35;3.30;;;;;;;20.85;100.00;101613.37;1740739;80;21053;-89
2021/07/08 04:54:45;;;;;;;3.98;3.47;;;;;;;20.88;100.00;101616.53;1760381;79;22197;-88
2021/07/08 04:57:16;;;;;;;5.58;3.42;;;;;;;20.93;100.00;101620.03;1750038;79;21095;-91
2021/07/08 04:59:42;;;;;;;4.28;3.30;;;;;;;21.01;100.00;101620.53;1768740;79;21104;-89
2021/07/08 05:02:09;;;;;;;5.72;3.52;;;;;;;21.08;100.00;101621.08;1751517;79;21038;-91
2021/07/08 05:04:36;;;;;;;6.47;3.45;;;;;;;21.16;100.00;101620.77;1676137;83;21109;-90
2021/07/08 05:07:04;;;;;;;10.32;3.60;;;;;;;21.21;100.00;101629.05;1746967;80;21597;-87
2021/07/08 05:09:31;;;;;;;3.70;3.20;;;;;;;21.24;100.00;101632.70;1727227;80;21288;-90
2021/07/08 05:11:59;;;;;;;6.97;3.62;;;;;;;21.27;100.00;101631.07;1686414;82;21051;-88
2021/07/08 05:14:29;;;;;;;7.72;3.58;;;;;;;21.27;100.00;101635.86;1693448;82;22128;-90
2021/07/08 05:16:56;;;;;;;5.30;3.60;;;;;;;21.29;100.00;101634.36;1698844;81;21153;-89
2021/07/08 05:19:23;;;;;;;3.55;3.25;;;;;;;21.32;100.00;101638.02;1731754;82;21149;-90
2021/07/08 05:21:51;;;;;;;3.47;3.10;;;;;;;21.34;100.00;101640.02;1697506;82;21099;-92
2021/07/08 05:24:22;;;;;;;5.17;3.25;;;;;;;21.39;100.00;101637.71;1693471;83;21483;-91
2021/07/08 05:26:50;;;;;;;7.90;4.10;;;;;;;21.47;100.00;101636.91;1691679;82;21074;-90
2021/07/08 05:29:17;;;;;;;5.53;3.70;;;;;;;21.53;100.00;101638.06;1680934;83;21137;-89
2021/07/08 05:31:45;;;;;;;6.37;3.72;;;;;;;21.60;100.00;101637.77;1731203;82;21256;-88
2021/07/08 05:34:12;;;;;;;5.65;3.58;;;;;;;21.69;100.00;101643.92;1805905;78;21038;-90
2021/07/08 05:36:39;;;;;;;9.95;3.98;;;;;;;21.77;100.00;101637.78;1769893;79;21069;-89
2021/07/08 05:39:07;;;;;;;7.30;4.30;;;;;;;21.82;100.00;101635.48;1764519;80;21195;-91
2021/07/08 05:41:34;;;;;;;7.45;3.70;;;;;;;21.85;100.00;101635.98;1766431;79;21058;-89
2021/07/08 05:44:01;;;;;;;5.97;3.92;;;;;;;21.90;100.00;101632.84;1739396;79;21060;-90
2021/07/08 05:46:29;;;;;;;5.05;3.80;;;;;;;21.98;100.00;101636.81;1754106;80;21037;-92
2021/07/08 05:48:57;;;;;;;5.78;4.40;;;;;;;22.05;100.00;101633.83;1756523;79;21115;-88
2021/07/08 05:51:24;;;;;;;6.00;4.20;;;;;;;22.11;100.00;101640.77;1763984;79;21523;-92
2021/07/08 05:53:53;;;;;;;5.05;3.52;;;;;;;22.12;100.00;101640.59;1746979;79;21627;-90
2021/07/08 05:56:20;;;;;;;6.47;4.08;;;;;;;22.16;100.00;101642.42;1773102;79;20994;-89
2021/07/08 05:58:47;;;;;;;5.33;4.03;;;;;;;22.21;100.00;101642.77;1743780;80;20995;-88
2021/07/08 06:01:15;;;;;;;6.42;4.10;;;;;;;22.24;100.00;101638.44;1759554;79;21121;-90
2021/07/08 06:03:42;;;;;;;5.65;3.92;;;;;;;22.27;100.00;101633.31;1759694;79;20965;-88
2021/07/08 06:06:09;;;;;;;9.83;3.72;;;;;;;22.30;100.00;101640.44;1765786;79;21053;-91
2021/07/08 06:08:36;;;;;;;7.05;3.72;;;;;;;22.38;100.00;101638.25;1766797;78;21101;-89
2021/07/08 06:11:05;;;;;;;6.15;3.85;;;;;;;22.48;100.00;101638.09;1757519;79;21003;-88
2021/07/08 06:13:32;;;;;;;8.18;3.70;;;;;;;22.55;100.00;101636.44;1691424;82;21069;-88
2021/07/08 06:15:59;;;;;;;5.03;3.83;;;;;;;22.61;100.00;101627.79;1685121;83;21148;-89
2021/07/08 06:18:26;;;;;;;8.60;4.15;;;;;;;22.69;100.00;101627.77;1754827;80;21913;-87
2021/07/08 06:20:53;;;;;;;4.97;3.45;;;;;;;22.80;100.00;101624.39;1727618;80;21976;-88
2021/07/08 06:23:21;;;;;;;5.90;3.33;;;;;;;22.90;100.00;101632.98;1727981;80;21132;-91
2021/07/08 06:25:49;;;;;;;6.35;3.67;;;;;;;22.97;100.00;101633.95;1765372;80;21096;-88
2021/07/08 06:28:18;;;;;;;6.17;4.17;;;;;;;23.04;100.00;101636.75;1745197;80;21085;-89
2021/07/08 06:30:46;;;;;;;4.45;4.05;;;;;;;23.12;100.00;101637.19;1756290;80;21203;-91
2021/07/08 06:33:13;;;;;;;6.28;4.00;;;;;;;23.17;100.00;101634.86;1730883;80;21992;-88
2021/07/08 06:35:41;;;;;;;4.75;3.95;;;;;;;23.22;100.00;101624.55;1724248;80;21021;-87
2021/07/08 06:38:08;;;;;;;9.25;4.40;;;;;;;23.31;100.00;101629.34;1751357;80;21619;-87
2021/07/08 06:40:35;;;;;;;7.45;4.05;;;;;;;23.40;100.00;101632.25;1690971;80;21105;-89
2021/07/08 06:43:02;;;;;;;9.28;4.37;;;;;;;23.45;100.00;101635.22;1689126;82;20979;-88
2021/07/08 06:45:34;;;;;;;7.95;3.60;;;;;;;23.54;100.00;101640.48;1722278;81;21102;-87
2021/07/08 06:48:04;;;;;;;4.58;3.87;;;;;;;23.63;100.00;101637.59;1798881;78;21070;-90
2021/07/08 06:50:35;;;;;;;8.45;4.00;;;;;;;23.74;100.00;101638.19;1770105;79;20973;-86
2021/07/08 06:53:05;;;;;;;6.40;4.00;;;;;;;23.84;100.00;101636.09;1755182;79;21087;-88
2021/07/08 06:55:35;;;;;;;7.90;3.95;;;;;;;23.96;100.00;101641.02;1781475;79;21064;-87
2021/07/08 06:58:03;;;;;;;5.55;3.58;;;;;;;24.04;100.00;101641.77;1772413;79;21133;-89
2021/07/08 07:00:35;;;;;;;4.72;3.80;;;;;;;24.13;100.00;101641.20;1762357;79;21155;-88
2021/07/08 07:03:05;;;;;;;5.72;3.87;;;;;;;24.24;100.00;101638.09;1749964;80;20975;-89
2021/07/08 07:05:32;;;;;;;7.03;4.17;;;;;;;24.36;100.00;101640.31;1740120;81;21067;-90
2021/07/08 07:08:00;;;;;;;7.37;4.20;;;;;;;24.44;100.00;101641.56;1722618;81;21006;-87
2021/07/08 07:10:28;;;;;;;5.85;3.80;;;;;;;24.54;100.00;101642.12;1719188;82;21920;-88
2021/07/08 07:12:58;;;;;;;7.00;4.08;;;;;;;24.62;100.00;101643.85;1724972;80;21082;-93
2021/07/08 07:15:28;;;;;;;6.25;4.12;;;;;;;24.67;100.00;101644.17;1723998;82;21004;-87
2021/07/08 07:17:57;;;;;;;5.75;4.05;;;;;;;24.75;100.00;101643.23;1747262;80;21055;-89
2021/07/08 07:20:26;;;;;;;5.85;4.25;;;;;;;24.86;100.00;101646.78;1728587;81;21137;-88
2021/07/08 07:22:53;;;;;;;5.15;3.87;;;;;;;24.94;100.00;101639.69;1726993;82;21814;-87
2021/07/08 07:25:24;;;;;;;6.75;4.33;;;;;;;25.03;100.00;101642.05;1700406;81;21089;-89
2021/07/08 07:27:54;;;;;;;7.22;4.05;;;;;;;25.14;100.00;101639.92;1787660;78;21073;-89
2021/07/08 07:30:25;;;;;;;4.58;3.83;;;;;;;25.28;100.00;101642.24;1724661;82;21001;-89
2021/07/08 07:32:54;;;;;;;4.93;3.67;;;;;;;25.38;100.00;101645.41;1733912;81;20948;-90
2021/07/08 07:35:22;;;;;;;7.95;4.00;;;;;;;25.46;100.00;101641.84;1792942;79;21136;-90
2021/07/08 07:37:52;;;;;;;11.53;4.45;;;;;;;25.56;100.00;101646.84;1760061;79;21685;-91
2021/07/08 07:40:22;;;;;;;6.65;3.95;;;;;;;25.70;100.00;101651.28;1724917;80;21125;-91
2021/07/08 07:42:51;;;;;;;7.58;4.20;;;;;;;25.77;100.00;101653.50;1758256;80;21064;-91
2021/07/08 07:45:19;;;;;;;6.17;3.67;;;;;;;25.84;100.00;101649.57;1664816;82;21120;-88
2021/07/08 07:47:52;;;;;;;9.50;4.67;;;;;;;25.89;99.11;101644.47;1682969;83;21388;-91
2021/07/08 07:50:19;;;;;;;4.35;3.95;;;;;;;25.97;100.00;101643.52;1762536;79;21013;-89
2021/07/08 07:52:47;;;;;;;5.12;4.22;;;;;;;26.04;96.61;101648.40;1778523;79;21207;-89
2021/07/08 07:55:15;;;;;;;5.25;4.30;;;;;;;26.10;100.00;101646.31;1762586;79;21048;-91
2021/07/08 07:57:44;;;;;;;8.10;4.15;;;;;;;26.18;97.24;101651.19;1730524;80;20982;-88
2021/07/08 08:00:12;;;;;;;7.62;3.95;;;;;;;26.24;96.62;101649.09;1699306;82;21848;-92
2021/07/08 08:02:42;;;;;;;6.92;4.25;;;;;;;26.31;88.01;101651.30;1740585;81;28328;-90
2021/07/08 08:10:29;;;;;;;6.90;3.90;;;;;;;26.53;85.53;101649.88;1751019;80;20993;-90
2021/07/08 08:25:02;;;;;;;8.93;4.10;;;;;;;27.47;88.82;101648.94;1783271;80;23162;-87
2021/07/08 08:27:29;;;;;;;8.45;3.60;;;;;;;27.65;88.17;101642.49;1727146;81;20989;-87
2021/07/08 08:32:26;;;;;;;4.33;3.60;;;;;;;27.82;71.89;101646.11;1739700;80;20963;-87
2021/07/08 08:34:53;;;;;;;8.50;4.58;;;;;;;27.85;73.97;101643.00;1722370;81;21076;-85
2021/07/08 08:37:21;;;;;;;15.78;5.10;;;;;;;27.89;70.21;101648.27;1654873;85;21591;-86
2021/07/08 08:39:48;;;;;;;6.17;3.77;;;;;;;27.93;77.19;101648.67;1679911;83;21563;-88
2021/07/08 08:42:15;;;;;;;7.35;3.70;;;;;;;27.97;78.26;101644.04;1711007;83;21984;-85
2021/07/08 08:44:44;;;;;;;6.80;3.83;;;;;;;28.07;75.20;101638.82;1739192;81;20930;-88
2021/07/08 08:47:11;;;;;;;7.75;3.65;;;;;;;28.15;75.31;101641.28;1760919;80;21468;-85
2021/07/08 08:49:40;;;;;;;3.98;3.60;;;;;;;28.25;70.18;101638.98;1720137;81;20970;-85
2021/07/08 08:52:11;;;;;;;7.45;3.35;;;;;;;28.38;60.67;101640.80;1720766;81;21069;-89
2021/07/08 08:54:43;;;;;;;9.20;3.75;;;;;;;28.43;60.79;101638.84;1720843;81;22055;-88
2021/07/08 08:57:11;;;;;;;4.12;3.67;;;;;;;28.48;61.06;101639.05;1706758;83;21130;-85
2021/07/08 08:59:39;;;;;;;5.83;3.40;;;;;;;28.57;64.46;101637.77;1690539;81;21144;-84
2021/07/08 09:02:18;;;;;;;4.20;2.77;;;;;;;28.71;67.13;101640.45;1704415;81;21038;-85
2021/07/08 09:04:47;;;;;;;5.50;3.25;;;;;;;28.80;52.26;101631.14;1716539;82;21014;-87
2021/07/08 09:07:27;;;;;;;5.08;2.85;;;;;;;28.80;53.09;101635.97;1716862;81;21498;-86
2021/07/08 09:09:56;;;;;;;9.03;3.37;;;;;;;28.85;46.18;101635.83;1711670;81;21623;-85
2021/07/08 09:12:24;;;;;;;4.75;3.15;;;;;;;28.91;47.49;101636.34;1749399;81;21025;-89
2021/07/08 09:15:15;;;;;;;4.83;2.62;;;;;;;28.96;47.87;101633.30;1721952;81;21043;-87
2021/07/08 09:17:45;;;;;;;5.03;3.10;;;;;;;29.04;49.25;101632.24;1721042;81;21057;-89
2021/07/08 09:20:17;;;;;;;6.03;2.77;;;;;;;29.12;42.74;101637.89;1737403;80;21147;-84
2021/07/08 09:22:48;;;;;;;4.42;2.75;;;;;;;29.15;45.50;101629.92;1738360;81;21089;-88
2021/07/08 09:25:26;;;;;;;3.70;2.67;;;;;;;29.19;44.02;101630.63;1709639;81;21157;-87
2021/07/08 09:28:22;;;;;;;8.28;2.60;;;;;;;29.20;46.42;101640.31;1707030;82;21105;-89
2021/07/08 09:31:03;;;;;;;4.37;2.90;;;;;;;29.24;42.51;101643.39;1700827;81;21122;-88
2021/07/08 09:33:38;;;;;;;4.37;2.90;;;;;;;29.24;47.63;101642.05;1684133;83;21155;-87
2021/07/08 09:36:11;;;;;;;6.03;3.00;;;;;;;29.34;48.55;101641.06;1698911;81;21081;-88
2021/07/08 09:38:44;;;;;;;4.83;2.52;;;;;;;29.41;49.10;101638.34;1698378;82;21111;-86
2021/07/08 09:41:18;;;;;;;4.03;2.52;;;;;;;29.47;47.82;101638.81;1700147;81;21065;-85
2021/07/08 09:43:46;;;;;;;4.58;2.30;;;;;;;29.57;47.52;101643.19;1705595;82;21060;-91
2021/07/08 09:46:16;;;;;;;6.53;3.00;;;;;;;29.63;44.91;101645.52;1737432;81;21029;-90
2021/07/08 09:49:07;;;;;;;7.70;2.12;;;;;;;29.65;45.45;101647.98;1707157;82;21513;-90
2021/07/08 09:51:35;;;;;;;4.45;2.20;;;;;;;29.67;47.88;101647.25;1707822;81;21072;-91
2021/07/08 09:54:14;;;;;;;6.05;2.35;;;;;;;29.71;44.58;101642.56;1740316;81;21061;-87
2021/07/08 09:56:45;;;;;;;2.72;2.08;;;;;;;29.76;42.79;101641.91;1697147;81;21022;-86
2021/07/08 09:59:16;;;;;;;8.85;2.85;;;;;;;29.73;43.09;101649.05;1736424;81;21536;-86
2021/07/08 10:01:45;;;;;;;4.58;2.15;;;;;;;29.72;41.74;101638.01;1704249;81;21017;-85
2021/07/08 10:04:14;;;;;;;6.83;1.95;;;;;;;29.77;44.16;101640.04;1742254;81;21057;-88
2021/07/08 10:06:42;;;;;;;4.53;2.10;;;;;;;29.78;44.44;101638.47;1738092;81;21387;-84
2021/07/08 10:09:15;;;;;;;5.58;2.20;;;;;;;29.79;40.62;101640.65;1671520;83;21121;-87
2021/07/08 10:11:51;;;;;;;3.37;2.40;;;;;;;29.74;40.57;101638.09;1649739;84;21572;-86
2021/07/08 10:14:20;;;;;;;3.55;2.35;;;;;;;29.71;41.50;101628.31;1756374;80;21018;-87
2021/07/08 10:16:51;;;;;;;5.55;1.98;;;;;;;29.75;42.63;101633.56;1751027;81;21053;-88
2021/07/08 10:19:21;;;;;;;4.85;2.58;;;;;;;29.87;45.89;101626.42;1718399;81;21505;-88
2021/07/08 10:21:51;;;;;;;2.60;1.90;;;;;;;30.00;46.93;101626.05;1714491;81;21061;-85
2021/07/08 10:24:19;;;;;;;8.33;2.65;;;;;;;30.15;49.08;101611.73;1721515;81;21767;-87
2021/07/08 10:26:48;;;;;;;2.72;2.40;;;;;;;30.25;41.25;101626.48;1718233;81;21045;-85
2021/07/08 10:29:16;;;;;;;5.45;2.30;;;;;;;30.17;40.08;101620.37;1730644;81;21104;-88
2021/07/08 10:31:49;;;;;;;6.37;2.60;;;;;;;30.14;43.00;101614.62;1716532;81;21097;-84
2021/07/08 10:34:21;;;;;;;6.08;2.55;;;;;;;30.15;43.72;101617.11;1715816;82;21017;-89
2021/07/08 10:36:52;;;;;;;5.58;2.50;;;;;;;30.21;40.73;101616.72;1701796;82;21077;-84
2021/07/08 10:39:22;;;;;;;3.25;2.20;;;;;;;30.23;40.92;101616.52;1721106;82;21046;-87
2021/07/08 10:41:58;;;;;;;4.45;2.40;;;;;;;30.30;46.19;101614.58;1748613;82;21065;-91
2021/07/08 10:44:42;;;;;;;3.75;2.33;;;;;;;30.33;46.65;101614.11;1721041;82;20982;-87
2021/07/08 10:47:39;;;;;;;5.70;2.50;;;;;;;30.32;42.81;101625.39;1687939;82;21116;-87
2021/07/08 10:50:39;;;;;;;5.40;2.60;;;;;;;30.24;41.38;101618.97;1730865;81;21212;-85
2021/07/08 10:53:26;;;;;;;6.50;2.27;;;;;;;30.14;42.17;101610.09;1720569;81;21120;-85
2021/07/08 10:56:08;;;;;;;5.22;2.77;;;;;;;30.19;44.00;101612.92;1725250;81;21050;-89
2021/07/08 10:58:38;;;;;;;;;;;;;;;30.34;43.99;101610.38;1711083;80;21061;-88
2021/07/08 11:01:12;;;;;;;3.35;2.20;;;;;;;30.40;40.96;101611.36;1747608;81;20234;-90
2021/07/08 11:03:45;;;;;;;4.17;2.10;;;;;;;30.39;41.65;101609.20;1741208;81;21064;-87
2021/07/08 11:06:26;;;;;;;3.33;2.02;;;;;;;30.45;42.41;101604.27;1731022;81;21422;-88
2021/07/08 11:09:02;;;;;;;9.13;2.30;;;;;;;30.56;40.69;101610.78;1712452;82;21049;-86
2021/07/08 11:11:35;;;;;;;8.05;2.30;;;;;;;30.54;39.99;101612.86;1716996;82;20979;-87
2021/07/08 11:14:24;;;;;;;2.65;2.30;;;;;;;30.52;40.91;101609.61;1746475;82;21441;-86
2021/07/08 11:16:54;;;;;;;3.72;2.37;;;;;;;30.45;38.15;101613.67;1746476;81;21155;-87
2021/07/08 11:19:26;;;;;;;5.17;2.30;;;;;;;30.38;40.52;101610.25;1718116;82;21018;-88
2021/07/08 11:22:01;;;;;;;2.33;2.10;;;;;;;30.43;41.09;101607.70;1723933;82;21476;-85
2021/07/08 11:24:33;;;;;;;2.52;2.30;;;;;;;30.50;40.32;101603.06;1711609;82;21044;-88
2021/07/08 11:27:05;;;;;;;7.80;2.30;;;;;;;30.55;38.75;101596.23;1660499;83;21080;-85
2021/07/08 11:29:49;;;;;;;2.90;2.50;;;;;;;30.45;38.39;101601.58;1670631;82;21183;-86
2021/07/08 11:32:35;;;;;;;4.45;2.10;;;;;;;30.32;37.45;101597.19;1684343;82;21064;-86
2021/07/08 11:35:21;;;;;;;6.72;2.47;;;;;;;30.24;39.46;101599.36;1693798;83;21030;-84
2021/07/08 11:38:21;;;;;;;3.27;2.25;;;;;;;30.28;39.31;101606.75;1613024;85;21069;-88
2021/07/08 11:40:49;;;;;;;4.35;2.00;;;;;;;30.25;37.78;101598.29;1694731;84;21107;-85
2021/07/08 11:43:33;;;;;;;3.25;2.30;;;;;;;30.17;37.46;101609.63;1667803;84;21628;-85
2021/07/08 11:46:13;;;;;;;1.90;1.70;;;;;;;30.18;38.47;101605.91;1667877;84;21023;-85
2021/07/08 11:48:43;;;;;;;3.87;2.30;;;;;;;30.18;39.54;101605.09;1667870;84;21068;-88
2021/07/08 11:51:32;;;;;;;3.02;2.22;;;;;;;30.13;37.97;101600.39;1665178;84;21094;-87
2021/07/08 11:53:59;;;;;;;6.33;2.42;;;;;;;30.14;38.41;101602.54;1665124;84;21125;-85